createdAt,value
2017-10-04T00:00:21.088Z,10.40
2017-10-04T00:02:49.389Z,10.40
2017-10-04T00:05:17.722Z,10.40
2017-10-04T00:07:46.067Z,10.50
2017-10-04T00:10:15.174Z,10.40
2017-10-04T00:12:43.572Z,10.40
2017-10-04T00:15:12.650Z,10.30
2017-10-04T00:17:40.979Z,10.30
2017-10-04T00:20:10.071Z,10.30
2017-10-04T00:22:38.375Z,10.20
2017-10-04T00:25:07.470Z,10.20
2017-10-04T00:27:35.777Z,10.20
2017-10-04T00:30:04.891Z,10.20
2017-10-04T00:32:33.199Z,10.20
2017-10-04T00:35:01.554Z,10.10
2017-10-04T00:37:29.946Z,10.10
2017-10-04T00:39:58.284Z,10.00
2017-10-04T00:42:26.653Z,10.00
2017-10-04T00:44:54.957Z,10.00
2017-10-04T00:47:23.257Z,10.00
2017-10-04T00:49:51.597Z,10.00
2017-10-04T00:52:19.930Z,10.00
2017-10-04T00:54:48.332Z,9.90
2017-10-04T00:57:16.662Z,9.90
2017-10-04T00:59:46.172Z,9.90
2017-10-04T01:02:14.491Z,9.90
2017-10-04T01:04:42.917Z,9.90
2017-10-04T01:07:11.232Z,9.80
2017-10-04T01:09:39.577Z,9.80
2017-10-04T01:12:08.082Z,9.80
2017-10-04T01:14:37.154Z,9.80
2017-10-04T01:17:05.443Z,9.80
2017-10-04T01:19:34.527Z,9.70
2017-10-04T01:22:02.873Z,9.70
2017-10-04T01:24:32.637Z,9.70
2017-10-04T01:27:01.434Z,9.60
2017-10-04T01:29:30.100Z,9.60
2017-10-04T01:31:58.526Z,9.60
2017-10-04T01:34:26.871Z,9.60
2017-10-04T01:36:55.169Z,9.50
2017-10-04T01:39:23.491Z,9.50
2017-10-04T01:41:51.817Z,9.50
2017-10-04T01:44:20.125Z,9.50
2017-10-04T01:46:48.484Z,9.50
2017-10-04T01:49:16.966Z,9.40
2017-10-04T01:51:45.262Z,9.50
2017-10-04T01:54:14.323Z,9.40
2017-10-04T01:56:42.642Z,9.40
2017-10-04T02:01:32.915Z,9.40
2017-10-04T02:04:01.221Z,9.30
2017-10-04T02:06:29.529Z,9.40
2017-10-04T02:08:58.605Z,9.30
2017-10-04T02:11:27.969Z,9.30
2017-10-04T02:13:56.304Z,9.30
2017-10-04T02:16:24.603Z,9.30
2017-10-04T02:18:52.968Z,9.30
2017-10-04T02:21:21.291Z,9.30
2017-10-04T02:23:49.590Z,9.30
2017-10-04T02:26:17.886Z,9.30
2017-10-04T02:28:46.198Z,9.30
2017-10-04T02:31:14.598Z,9.30
2017-10-04T02:33:43.685Z,9.20
2017-10-04T02:36:11.989Z,9.20
2017-10-04T02:38:40.314Z,9.20
2017-10-04T02:41:08.643Z,9.30
2017-10-04T02:43:37.010Z,9.30
2017-10-04T02:46:05.358Z,9.30
2017-10-04T02:48:33.685Z,9.30
2017-10-04T02:51:02.866Z,9.30
2017-10-04T02:53:32.521Z,9.30
2017-10-04T02:56:02.278Z,9.30
2017-10-04T02:58:30.596Z,9.30
2017-10-04T03:00:59.004Z,9.30
2017-10-04T03:03:28.970Z,9.30
2017-10-04T03:05:57.565Z,9.30
2017-10-04T03:08:25.930Z,9.30
2017-10-04T03:10:55.048Z,9.30
2017-10-04T03:13:23.367Z,9.20
2017-10-04T03:15:51.728Z,9.30
2017-10-04T03:18:20.778Z,9.30
2017-10-04T03:20:49.868Z,9.30
2017-10-04T03:23:18.207Z,9.30
2017-10-04T03:25:47.267Z,9.30
2017-10-04T03:28:16.357Z,9.30
2017-10-04T03:30:44.663Z,9.20
2017-10-04T03:33:12.954Z,9.30
2017-10-04T03:35:41.319Z,9.30
2017-10-04T03:38:09.638Z,9.30
2017-10-04T03:40:37.950Z,9.20
2017-10-04T03:43:06.266Z,9.20
2017-10-04T03:45:34.558Z,9.20
2017-10-04T03:48:02.887Z,9.20
2017-10-04T03:50:31.969Z,9.20
2017-10-04T03:53:00.270Z,9.10
2017-10-04T03:55:28.827Z,9.10
2017-10-04T03:57:57.150Z,9.10
2017-10-04T04:00:31.288Z,9.10
2017-10-04T04:03:00.186Z,9.10
2017-10-04T04:05:28.503Z,9.10
2017-10-04T04:07:56.819Z,9.10
2017-10-04T04:10:25.133Z,9.10
2017-10-04T04:12:54.244Z,9.10
2017-10-04T04:15:23.338Z,9.00
2017-10-04T04:17:51.625Z,9.00
2017-10-04T04:20:19.949Z,9.00
2017-10-04T04:22:48.243Z,9.00
2017-10-04T04:25:16.589Z,9.00
2017-10-04T04:27:44.905Z,9.00
2017-10-04T04:30:13.965Z,9.00
2017-10-04T04:32:42.326Z,9.00
2017-10-04T04:35:11.460Z,9.00
2017-10-04T04:37:39.778Z,8.90
2017-10-04T04:40:08.149Z,9.00
2017-10-04T04:42:37.539Z,9.00
2017-10-04T04:45:05.829Z,8.90
2017-10-04T04:47:34.121Z,8.90
2017-10-04T04:50:02.455Z,8.90
2017-10-04T04:52:30.762Z,8.90
2017-10-04T04:54:59.108Z,8.90
2017-10-04T04:57:27.397Z,8.90
2017-10-04T04:59:56.490Z,8.90
2017-10-04T05:02:24.801Z,8.80
2017-10-04T05:04:53.138Z,8.80
2017-10-04T05:07:21.465Z,8.80
2017-10-04T05:09:49.808Z,8.70
2017-10-04T05:12:18.241Z,8.70
2017-10-04T05:14:46.981Z,8.70
2017-10-04T05:17:15.337Z,8.70
2017-10-04T05:19:43.633Z,8.70
2017-10-04T05:22:11.973Z,8.70
2017-10-04T05:24:40.292Z,8.70
2017-10-04T05:27:08.600Z,8.70
2017-10-04T05:29:36.934Z,8.60
2017-10-04T05:32:05.261Z,8.60
2017-10-04T05:34:33.618Z,8.60
2017-10-04T05:37:01.910Z,8.60
2017-10-04T05:39:30.260Z,8.60
2017-10-04T05:41:58.565Z,8.60
2017-10-04T05:44:26.912Z,8.60
2017-10-04T05:46:55.198Z,8.60
2017-10-04T05:49:24.265Z,8.60
2017-10-04T05:51:52.589Z,8.60
2017-10-04T05:54:20.897Z,8.60
2017-10-04T05:56:50.316Z,8.60
2017-10-04T05:59:18.698Z,8.60
2017-10-04T06:01:47.020Z,8.60
2017-10-04T06:04:15.316Z,8.50
2017-10-04T06:06:44.405Z,8.50
2017-10-04T06:09:12.721Z,8.50
2017-10-04T06:11:41.801Z,8.60
2017-10-04T06:14:10.101Z,8.50
2017-10-04T06:16:38.493Z,8.70
2017-10-04T06:19:06.818Z,8.70
2017-10-04T06:21:35.913Z,8.80
2017-10-04T06:24:04.912Z,8.80
2017-10-04T06:26:34.162Z,9.00
2017-10-04T06:29:02.496Z,9.00
2017-10-04T06:31:30.797Z,9.20
2017-10-04T06:33:59.145Z,9.30
2017-10-04T06:36:27.469Z,9.40
2017-10-04T06:38:56.561Z,10.00
2017-10-04T06:41:24.855Z,9.90
2017-10-04T06:43:53.198Z,10.20
2017-10-04T06:46:21.501Z,10.50
2017-10-04T06:48:49.808Z,10.60
2017-10-04T06:51:18.900Z,10.40
2017-10-04T06:53:47.250Z,10.40
2017-10-04T06:56:15.549Z,10.30
2017-10-04T06:58:43.880Z,10.10
2017-10-04T07:01:12.218Z,10.00
2017-10-04T07:03:40.576Z,9.90
2017-10-04T07:06:09.641Z,9.90
2017-10-04T07:08:37.998Z,9.90
2017-10-04T07:11:06.352Z,9.90
2017-10-04T07:13:34.685Z,9.90
2017-10-04T07:16:03.053Z,10.00
2017-10-04T07:18:31.361Z,10.00
2017-10-04T07:20:59.756Z,10.20
2017-10-04T07:23:28.105Z,10.20
2017-10-04T07:25:57.200Z,10.20
2017-10-04T07:28:25.567Z,10.20
2017-10-04T07:30:53.940Z,10.30
2017-10-04T07:33:22.249Z,10.50
2017-10-04T07:35:50.594Z,10.90
2017-10-04T07:38:18.898Z,11.00
2017-10-04T07:40:47.292Z,11.10
2017-10-04T07:43:15.681Z,11.20
2017-10-04T07:45:44.061Z,11.50
2017-10-04T07:48:12.396Z,11.70
2017-10-04T07:50:40.781Z,11.70
2017-10-04T07:53:09.110Z,11.80
2017-10-04T07:55:37.404Z,11.80
2017-10-04T07:58:05.757Z,11.70
2017-10-04T08:00:35.021Z,11.80
2017-10-04T08:03:04.143Z,12.00
2017-10-04T08:05:32.528Z,12.00
2017-10-04T08:08:00.841Z,11.70
2017-10-04T08:10:30.000Z,11.40
2017-10-04T08:12:58.304Z,11.40
2017-10-04T08:15:27.374Z,11.30
2017-10-04T08:17:56.468Z,11.40
2017-10-04T08:20:24.802Z,11.40
2017-10-04T08:22:53.144Z,11.50
2017-10-04T08:25:21.433Z,11.60
2017-10-04T08:27:50.515Z,11.60
2017-10-04T08:30:19.943Z,11.60
2017-10-04T08:32:48.971Z,11.50
2017-10-04T08:35:17.557Z,11.60
2017-10-04T08:40:29.416Z,11.90
2017-10-04T08:43:03.923Z,12.10
2017-10-04T08:45:34.627Z,12.50
2017-10-04T08:48:20.684Z,12.50
2017-10-04T08:50:49.792Z,12.90
2017-10-04T08:53:29.900Z,12.90
2017-10-04T08:56:00.037Z,13.00
2017-10-04T08:58:30.167Z,13.00
2017-10-04T09:00:58.461Z,13.10
2017-10-04T09:03:27.472Z,13.10
2017-10-04T09:06:19.050Z,12.70
2017-10-04T09:08:47.430Z,12.80
2017-10-04T09:11:16.546Z,13.90
2017-10-04T09:13:44.869Z,13.90
2017-10-04T09:16:13.156Z,14.20
2017-10-04T09:18:41.470Z,14.40
2017-10-04T09:21:09.800Z,14.40
2017-10-04T09:23:38.162Z,14.30
2017-10-04T09:26:06.479Z,14.40
2017-10-04T09:28:34.814Z,14.40
2017-10-04T09:31:03.192Z,14.60
2017-10-04T09:33:31.552Z,14.60
2017-10-04T09:35:59.915Z,14.60
2017-10-04T09:38:28.282Z,14.60
2017-10-04T09:40:56.663Z,15.20
2017-10-04T09:43:25.012Z,15.50
2017-10-04T09:45:53.304Z,15.70
2017-10-04T09:48:31.036Z,15.60
2017-10-04T09:51:00.424Z,15.60
2017-10-04T09:53:28.799Z,15.50
2017-10-04T09:55:57.180Z,15.40
2017-10-04T09:58:25.491Z,15.40
2017-10-04T10:00:53.828Z,15.30
2017-10-04T10:03:25.695Z,15.10
2017-10-04T10:05:54.805Z,14.50
2017-10-04T10:08:23.874Z,14.30
2017-10-04T10:10:52.959Z,14.10
2017-10-04T10:13:21.359Z,14.10
2017-10-04T10:15:49.824Z,14.10
2017-10-04T10:18:20.061Z,14.40
2017-10-04T10:20:49.028Z,14.40
2017-10-04T10:23:18.248Z,14.50
2017-10-04T10:25:46.631Z,14.50
2017-10-04T10:28:15.253Z,14.60
2017-10-04T10:30:44.376Z,14.50
2017-10-04T10:33:12.685Z,14.90
2017-10-04T10:35:41.888Z,14.60
2017-10-04T10:38:11.297Z,14.50
2017-10-04T10:40:40.246Z,14.50
2017-10-04T10:43:09.359Z,14.70
2017-10-04T10:45:37.669Z,14.70
2017-10-04T10:48:05.999Z,14.90
2017-10-04T10:50:34.369Z,15.30
2017-10-04T10:53:02.684Z,15.70
2017-10-04T10:55:31.870Z,15.90
2017-10-04T10:58:01.089Z,15.90
2017-10-04T11:00:31.513Z,15.80
2017-10-04T11:03:00.116Z,15.70
2017-10-04T11:05:28.513Z,15.90
2017-10-04T11:07:57.522Z,15.80
2017-10-04T11:10:26.614Z,15.70
2017-10-04T11:12:55.716Z,15.60
2017-10-04T11:15:24.126Z,15.60
2017-10-04T11:17:53.024Z,15.60
2017-10-04T11:20:21.326Z,15.50
2017-10-04T11:22:49.656Z,15.60
2017-10-04T11:25:18.762Z,15.50
2017-10-04T11:27:47.085Z,15.50
2017-10-04T11:30:16.184Z,16.00
2017-10-04T11:32:44.545Z,16.00
2017-10-04T11:35:14.296Z,15.90
2017-10-04T11:37:43.422Z,15.70
2017-10-04T11:40:11.708Z,15.70
2017-10-04T11:42:40.032Z,15.60
2017-10-04T11:45:08.395Z,15.80
2017-10-04T11:47:37.510Z,15.90
2017-10-04T11:50:06.018Z,15.90
2017-10-04T11:52:35.566Z,16.60
2017-10-04T11:55:03.910Z,16.60
2017-10-04T12:00:11.822Z,16.70
2017-10-04T12:02:42.252Z,16.40
2017-10-04T12:05:10.657Z,16.10
2017-10-04T12:07:39.017Z,15.70
2017-10-04T12:10:07.336Z,15.50
2017-10-04T12:12:37.641Z,15.40
2017-10-04T12:15:09.645Z,15.20
2017-10-04T12:17:38.841Z,15.00
2017-10-04T12:20:07.168Z,15.00
2017-10-04T12:22:35.564Z,15.00
2017-10-04T12:25:03.941Z,14.90
2017-10-04T12:27:33.040Z,15.00
2017-10-04T12:30:01.413Z,15.00
2017-10-04T12:32:29.865Z,15.00
2017-10-04T12:34:58.209Z,15.10
2017-10-04T12:37:26.648Z,15.00
2017-10-04T12:40:01.135Z,15.10
2017-10-04T12:42:30.891Z,15.30
2017-10-04T12:45:00.517Z,15.30
2017-10-04T12:47:28.885Z,15.40
2017-10-04T12:49:57.190Z,15.30
2017-10-04T12:52:25.527Z,15.40
2017-10-04T12:54:56.020Z,15.80
2017-10-04T12:57:24.341Z,15.80
2017-10-04T12:59:52.734Z,15.80
2017-10-04T13:02:21.100Z,15.70
2017-10-04T13:04:50.464Z,15.60
2017-10-04T13:07:18.799Z,15.50
2017-10-04T13:09:47.129Z,15.40
2017-10-04T13:12:16.117Z,15.30
2017-10-04T13:14:45.393Z,15.20
2017-10-04T13:17:16.344Z,15.20
2017-10-04T13:19:44.670Z,15.30
2017-10-04T13:22:13.000Z,15.20
2017-10-04T13:24:41.335Z,15.20
2017-10-04T13:27:10.207Z,15.20
2017-10-04T13:29:38.549Z,15.20
2017-10-04T13:32:07.653Z,15.20
2017-10-04T13:34:36.062Z,15.10
2017-10-04T13:37:04.466Z,15.10
2017-10-04T13:39:33.478Z,15.10
2017-10-04T13:42:01.880Z,15.10
2017-10-04T13:44:31.099Z,15.10
2017-10-04T13:47:00.343Z,15.20
2017-10-04T13:49:28.666Z,15.20
2017-10-04T13:51:57.244Z,15.10
2017-10-04T13:54:31.487Z,15.10
2017-10-04T13:56:59.808Z,15.20
2017-10-04T13:59:28.929Z,15.30
2017-10-04T14:01:57.268Z,15.30
2017-10-04T14:04:25.587Z,15.20
2017-10-04T14:06:54.683Z,15.20
2017-10-04T14:09:23.824Z,15.20
2017-10-04T14:11:52.130Z,15.20
2017-10-04T14:14:20.436Z,15.20
2017-10-04T14:16:48.790Z,15.20
2017-10-04T14:19:17.152Z,15.20
2017-10-04T14:21:45.466Z,15.20
2017-10-04T14:24:14.567Z,15.00
2017-10-04T14:26:42.952Z,15.00
2017-10-04T14:29:11.266Z,15.10
2017-10-04T14:31:41.183Z,15.00
2017-10-04T14:34:10.283Z,15.00
2017-10-04T14:36:38.623Z,15.00
2017-10-04T14:39:08.414Z,14.90
2017-10-04T14:41:36.919Z,14.90
2017-10-04T14:44:06.713Z,14.90
2017-10-04T14:46:37.341Z,14.80
2017-10-04T14:49:05.751Z,14.80
2017-10-04T14:51:34.185Z,14.80
2017-10-04T14:54:06.593Z,14.80
2017-10-04T14:56:35.016Z,14.80
2017-10-04T14:59:04.320Z,14.80
2017-10-04T15:01:32.827Z,14.80
2017-10-04T15:04:01.247Z,14.80
2017-10-04T15:06:32.203Z,14.80
2017-10-04T15:09:05.208Z,14.80
2017-10-04T15:11:33.711Z,14.80
2017-10-04T15:14:02.346Z,14.60
2017-10-04T15:16:34.963Z,14.60
2017-10-04T15:19:03.513Z,14.60
2017-10-04T15:21:32.734Z,14.50
2017-10-04T15:24:01.925Z,14.50
2017-10-04T15:26:31.649Z,14.40
2017-10-04T15:29:00.066Z,14.40
2017-10-04T15:31:32.690Z,14.40
2017-10-04T15:34:02.113Z,14.40
2017-10-04T15:36:31.232Z,14.30
2017-10-04T15:38:59.806Z,14.30
2017-10-04T15:41:28.181Z,14.20
2017-10-04T15:44:08.089Z,14.20
2017-10-04T15:46:37.417Z,14.20
2017-10-04T15:49:06.560Z,14.20
2017-10-04T15:52:58.867Z,14.10
2017-10-04T15:55:28.104Z,14.10
2017-10-04T15:57:56.442Z,14.10
2017-10-04T16:00:24.781Z,14.10
2017-10-04T16:02:53.128Z,14.00
2017-10-04T16:05:21.446Z,14.00
2017-10-04T16:07:49.798Z,14.00
2017-10-04T16:10:18.128Z,14.00
2017-10-04T16:12:46.420Z,14.00
2017-10-04T16:15:14.699Z,13.90
2017-10-04T16:17:43.035Z,13.90
2017-10-04T16:20:11.402Z,13.90
2017-10-04T16:22:39.776Z,13.90
2017-10-04T16:25:08.915Z,13.90
2017-10-04T16:27:39.207Z,13.90
2017-10-04T16:30:07.640Z,13.90
2017-10-04T16:32:36.698Z,13.80
2017-10-04T16:35:06.717Z,13.80
2017-10-04T16:37:35.105Z,13.90
2017-10-04T16:40:07.100Z,13.80
2017-10-04T16:42:48.190Z,13.80
2017-10-04T16:45:16.553Z,13.70
2017-10-04T16:47:46.418Z,13.70
2017-10-04T16:50:14.733Z,13.70
2017-10-04T16:52:43.061Z,13.70
2017-10-04T16:55:11.384Z,13.70
2017-10-04T16:57:41.675Z,13.70
2017-10-04T17:00:14.097Z,13.70
2017-10-04T17:02:44.485Z,13.60
2017-10-04T17:05:30.202Z,13.60
2017-10-04T20:13:19.317Z,12.90
2017-10-04T20:15:47.615Z,12.90
2017-10-04T20:18:15.955Z,12.90
2017-10-04T20:20:44.277Z,12.90
2017-10-04T20:23:12.662Z,12.90
2017-10-04T20:25:41.022Z,12.90
2017-10-04T20:28:09.521Z,12.90
2017-10-04T20:30:37.834Z,12.90
2017-10-04T20:33:06.367Z,12.90
2017-10-04T20:35:35.475Z,12.90
2017-10-04T20:38:03.781Z,12.90
2017-10-04T20:40:32.897Z,12.90
2017-10-04T20:43:01.242Z,12.90
2017-10-04T20:45:30.067Z,12.90
2017-10-04T20:47:58.407Z,12.90
2017-10-04T20:50:27.509Z,12.90
2017-10-04T20:52:56.088Z,12.90
2017-10-04T20:55:24.449Z,12.90
2017-10-04T20:57:52.833Z,12.90
2017-10-04T21:00:21.206Z,12.80
2017-10-04T21:02:49.534Z,12.80
2017-10-04T21:05:17.838Z,12.80
2017-10-04T21:07:46.143Z,12.80
2017-10-04T21:10:14.480Z,12.80
2017-10-04T21:12:42.794Z,12.80
2017-10-04T21:15:11.902Z,12.70
2017-10-04T21:17:40.288Z,12.70
2017-10-04T21:20:08.703Z,12.70
2017-10-04T21:22:37.009Z,12.70
2017-10-04T21:25:05.483Z,12.70
2017-10-04T21:27:33.806Z,12.70
2017-10-04T21:30:02.120Z,12.70
2017-10-04T21:32:30.606Z,12.70
2017-10-04T21:34:58.916Z,12.70
2017-10-04T21:37:27.202Z,12.70
2017-10-04T21:39:55.577Z,12.60
2017-10-04T21:42:23.894Z,12.60
2017-10-04T21:44:53.019Z,12.60
2017-10-04T21:47:21.414Z,12.60
2017-10-04T21:49:50.495Z,12.60
2017-10-04T21:52:19.622Z,12.60
2017-10-04T21:54:48.120Z,12.60
2017-10-04T21:57:17.209Z,12.50
2017-10-04T21:59:46.336Z,12.60
2017-10-04T22:02:14.777Z,12.50
2017-10-04T22:04:43.097Z,12.50
2017-10-04T22:07:11.441Z,13.00
2017-10-04T22:09:39.888Z,12.60
2017-10-04T22:12:09.016Z,12.60
2017-10-04T22:14:37.368Z,12.60
2017-10-04T22:17:05.666Z,12.70
2017-10-04T22:19:33.960Z,12.70
2017-10-04T22:22:02.300Z,12.70
2017-10-04T22:24:30.674Z,12.70
2017-10-04T22:26:59.289Z,12.70
2017-10-04T22:29:27.621Z,12.70
2017-10-04T22:31:55.924Z,12.70
2017-10-04T22:34:24.238Z,12.70
2017-10-04T22:36:52.629Z,12.70
2017-10-04T22:39:20.930Z,12.70
2017-10-04T22:41:49.249Z,12.70
2017-10-04T22:44:17.770Z,12.70
2017-10-04T22:46:46.090Z,12.70
2017-10-04T22:49:14.458Z,12.70
2017-10-04T22:51:42.805Z,12.70
2017-10-04T22:54:11.098Z,12.70
2017-10-04T22:56:39.407Z,12.60
2017-10-04T22:59:07.744Z,12.60
2017-10-04T23:01:36.060Z,12.60
2017-10-04T23:04:04.395Z,12.60
2017-10-04T23:06:33.457Z,12.70
2017-10-04T23:09:01.784Z,12.60
2017-10-04T23:11:30.163Z,12.60
2017-10-04T23:13:58.463Z,12.60
2017-10-04T23:16:26.813Z,12.60
2017-10-04T23:18:55.154Z,12.70
2017-10-04T23:21:24.298Z,12.70
2017-10-04T23:23:52.627Z,12.60
2017-10-04T23:26:20.971Z,12.70
2017-10-04T23:28:50.049Z,12.60
2017-10-04T23:31:18.356Z,12.60
2017-10-04T23:33:46.720Z,12.70
2017-10-04T23:36:15.812Z,12.70
2017-10-04T23:38:44.968Z,12.60
2017-10-04T23:41:13.318Z,12.60
2017-10-04T23:43:42.406Z,12.60
2017-10-04T23:46:10.706Z,12.60
2017-10-04T23:48:39.054Z,12.60
2017-10-04T23:51:07.370Z,12.60
2017-10-04T23:53:36.437Z,12.60
2017-10-04T23:56:04.811Z,12.50
2017-10-04T23:58:33.114Z,12.60
